sensor_id;sensor_type;location;lat;lon;timestamp;temperature;humidity
71212;DHT22;58957;37.742;-0.742;2023-10-08T08:23:41;25.50;99.90
71212;DHT22;58957;37.742;-0.742;2023-10-08T08:26:14;25.70;99.90
71212;DHT22;58957;37.742;-0.742;2023-10-08T08:28:53;25.80;99.90
71212;DHT22;58957;37.742;-0.742;2023-10-08T08:31:23;25.90;99.90
71212;DHT22;58957;37.742;-0.742;2023-10-08T08:33:53;26.00;99.90
71212;DHT22;58957;37.742;-0.742;2023-10-08T08:36:23;25.90;99.90
71212;DHT22;58957;37.742;-0.742;2023-10-08T08:38:51;25.80;99.90
71212;DHT22;58957;37.742;-0.742;2023-10-08T08:41:19;25.80;99.90
71212;DHT22;58957;37.742;-0.742;2023-10-08T08:43:48;25.90;99.90
71212;DHT22;58957;37.742;-0.742;2023-10-08T08:46:27;25.90;99.90
71212;DHT22;58957;37.742;-0.742;2023-10-08T08:49:00;26.00;99.90
71212;DHT22;58957;37.742;-0.742;2023-10-08T08:51:28;25.90;99.90
71212;DHT22;58957;37.742;-0.742;2023-10-08T08:53:56;25.80;99.90
71212;DHT22;58957;37.742;-0.742;2023-10-08T08:56:26;25.90;99.90
71212;DHT22;58957;37.742;-0.742;2023-10-08T08:58:55;25.90;99.90
71212;DHT22;58957;37.742;-0.742;2023-10-08T09:01:25;26.10;99.90
71212;DHT22;58957;37.742;-0.742;2023-10-08T09:04:00;25.80;99.90
71212;DHT22;58957;37.742;-0.742;2023-10-08T09:06:32;25.90;99.90
71212;DHT22;58957;37.742;-0.742;2023-10-08T09:09:00;26.10;99.90
71212;DHT22;58957;37.742;-0.742;2023-10-08T09:11:47;26.20;99.90
71212;DHT22;58957;37.742;-0.742;2023-10-08T09:14:19;26.20;99.90
71212;DHT22;58957;37.742;-0.742;2023-10-08T09:16:47;26.40;99.90
71212;DHT22;58957;37.742;-0.742;2023-10-08T09:19:15;26.50;99.90
71212;DHT22;58957;37.742;-0.742;2023-10-08T09:22:00;26.50;99.90
71212;DHT22;58957;37.742;-0.742;2023-10-08T09:24:29;26.30;99.90
71212;DHT22;58957;37.742;-0.742;2023-10-08T09:26:56;26.20;99.90
71212;DHT22;58957;37.742;-0.742;2023-10-08T09:29:24;26.30;99.90
71212;DHT22;58957;37.742;-0.742;2023-10-08T09:31:53;26.50;99.90
71212;DHT22;58957;37.742;-0.742;2023-10-08T09:34:26;26.50;99.90
71212;DHT22;58957;37.742;-0.742;2023-10-08T09:36:56;26.60;99.90
71212;DHT22;58957;37.742;-0.742;2023-10-08T09:39:26;26.60;99.90
71212;DHT22;58957;37.742;-0.742;2023-10-08T09:41:55;26.60;99.90
71212;DHT22;58957;37.742;-0.742;2023-10-08T09:44:23;26.80;99.90
71212;DHT22;58957;37.742;-0.742;2023-10-08T09:46:53;26.80;99.90
71212;DHT22;58957;37.742;-0.742;2023-10-08T09:49:29;26.70;99.90
71212;DHT22;58957;37.742;-0.742;2023-10-08T09:52:01;26.80;99.90
71212;DHT22;58957;37.742;-0.742;2023-10-08T09:54:34;27.00;99.90
71212;DHT22;58957;37.742;-0.742;2023-10-08T09:57:06;27.20;99.90
71212;DHT22;58957;37.742;-0.742;2023-10-08T09:59:34;26.90;99.90
71212;DHT22;58957;37.742;-0.742;2023-10-08T10:02:04;26.90;99.90
71212;DHT22;58957;37.742;-0.742;2023-10-08T10:04:42;26.90;99.90
71212;DHT22;58957;37.742;-0.742;2023-10-08T10:07:11;26.90;99.90
71212;DHT22;58957;37.742;-0.742;2023-10-08T10:09:40;26.70;99.90
71212;DHT22;58957;37.742;-0.742;2023-10-08T10:12:11;26.80;99.90
71212;DHT22;58957;37.742;-0.742;2023-10-08T10:14:44;26.80;99.90
71212;DHT22;58957;37.742;-0.742;2023-10-08T10:17:15;26.90;99.90
71212;DHT22;58957;37.742;-0.742;2023-10-08T10:19:54;27.10;99.90
71212;DHT22;58957;37.742;-0.742;2023-10-08T10:22:28;27.40;99.90
71212;DHT22;58957;37.742;-0.742;2023-10-08T10:24:57;27.40;99.90
71212;DHT22;58957;37.742;-0.742;2023-10-08T10:27:26;27.60;99.90
71212;DHT22;58957;37.742;-0.742;2023-10-08T10:30:02;27.50;99.90
71212;DHT22;58957;37.742;-0.742;2023-10-08T10:32:34;27.70;99.90
71212;DHT22;58957;37.742;-0.742;2023-10-08T10:35:03;27.80;99.90
71212;DHT22;58957;37.742;-0.742;2023-10-08T10:37:33;27.80;99.90
71212;DHT22;58957;37.742;-0.742;2023-10-08T10:40:08;27.70;99.90
71212;DHT22;58957;37.742;-0.742;2023-10-08T10:42:38;27.70;99.90
71212;DHT22;58957;37.742;-0.742;2023-10-08T10:45:13;27.90;99.90
71212;DHT22;58957;37.742;-0.742;2023-10-08T10:48:01;27.90;99.90
71212;DHT22;58957;37.742;-0.742;2023-10-08T10:50:39;27.60;99.90
71212;DHT22;58957;37.742;-0.742;2023-10-08T10:53:17;28.00;99.90
71212;DHT22;58957;37.742;-0.742;2023-10-08T10:55:45;28.20;99.90
71212;DHT22;58957;37.742;-0.742;2023-10-08T10:58:24;28.40;99.90
71212;DHT22;58957;37.742;-0.742;2023-10-08T11:00:54;28.00;99.90
71212;DHT22;58957;37.742;-0.742;2023-10-08T11:03:24;27.80;99.90
71212;DHT22;58957;37.742;-0.742;2023-10-08T11:05:56;27.80;99.90
71212;DHT22;58957;37.742;-0.742;2023-10-08T11:08:25;27.60;99.90
71212;DHT22;58957;37.742;-0.742;2023-10-08T11:11:00;27.80;99.90
71212;DHT22;58957;37.742;-0.742;2023-10-08T11:13:33;28.20;99.90
71212;DHT22;58957;37.742;-0.742;2023-10-08T11:16:05;28.40;99.90
71212;DHT22;58957;37.742;-0.742;2023-10-08T11:18:33;28.30;99.90
71212;DHT22;58957;37.742;-0.742;2023-10-08T11:21:09;28.40;99.90
71212;DHT22;58957;37.742;-0.742;2023-10-08T11:23:51;28.60;99.90
71212;DHT22;58957;37.742;-0.742;2023-10-08T11:26:25;28.50;99.90
71212;DHT22;58957;37.742;-0.742;2023-10-08T11:29:05;28.50;99.90
71212;DHT22;58957;37.742;-0.742;2023-10-08T11:31:41;28.50;99.90
71212;DHT22;58957;37.742;-0.742;2023-10-08T11:34:11;28.60;99.90
71212;DHT22;58957;37.742;-0.742;2023-10-08T11:36:40;28.60;99.90
71212;DHT22;58957;37.742;-0.742;2023-10-08T11:39:19;28.60;99.90
71212;DHT22;58957;37.742;-0.742;2023-10-08T11:41:57;28.70;99.90
71212;DHT22;58957;37.742;-0.742;2023-10-08T11:44:29;28.60;99.90
71212;DHT22;58957;37.742;-0.742;2023-10-08T11:46:57;28.60;99.90
71212;DHT22;58957;37.742;-0.742;2023-10-08T11:49:30;28.60;99.90
71212;DHT22;58957;37.742;-0.742;2023-10-08T11:52:03;28.80;99.90
71212;DHT22;58957;37.742;-0.742;2023-10-08T11:54:31;28.90;99.90
71212;DHT22;58957;37.742;-0.742;2023-10-08T11:56:59;28.80;99.90
71212;DHT22;58957;37.742;-0.742;2023-10-08T11:59:28;29.10;99.90
71212;DHT22;58957;37.742;-0.742;2023-10-08T12:01:57;29.40;99.90
71212;DHT22;58957;37.742;-0.742;2023-10-08T12:04:25;29.10;99.90
71212;DHT22;58957;37.742;-0.742;2023-10-08T12:06:55;29.10;99.90
71212;DHT22;58957;37.742;-0.742;2023-10-08T12:09:24;29.10;99.90
71212;DHT22;58957;37.742;-0.742;2023-10-08T12:11:53;29.00;99.90
71212;DHT22;58957;37.742;-0.742;2023-10-08T12:14:22;29.10;99.90
71212;DHT22;58957;37.742;-0.742;2023-10-08T12:16:55;29.20;99.90
71212;DHT22;58957;37.742;-0.742;2023-10-08T12:19:25;29.20;99.90
71212;DHT22;58957;37.742;-0.742;2023-10-08T12:21:53;29.20;99.90
71212;DHT22;58957;37.742;-0.742;2023-10-08T12:24:20;29.40;99.90
71212;DHT22;58957;37.742;-0.742;2023-10-08T12:26:50;29.60;99.90
71212;DHT22;58957;37.742;-0.742;2023-10-08T12:29:17;29.60;99.90
71212;DHT22;58957;37.742;-0.742;2023-10-08T12:31:44;29.60;99.90
71212;DHT22;58957;37.742;-0.742;2023-10-08T12:34:13;29.90;99.90
71212;DHT22;58957;37.742;-0.742;2023-10-08T12:36:41;30.10;99.90
71212;DHT22;58957;37.742;-0.742;2023-10-08T12:39:08;30.10;99.90
71212;DHT22;58957;37.742;-0.742;2023-10-08T12:41:40;30.20;99.90
71212;DHT22;58957;37.742;-0.742;2023-10-08T12:44:11;30.50;99.90
71212;DHT22;58957;37.742;-0.742;2023-10-08T12:46:41;30.60;99.90
71212;DHT22;58957;37.742;-0.742;2023-10-08T12:49:10;31.20;99.90
71212;DHT22;58957;37.742;-0.742;2023-10-08T12:51:37;31.20;99.90
71212;DHT22;58957;37.742;-0.742;2023-10-08T12:54:07;31.40;99.90
71212;DHT22;58957;37.742;-0.742;2023-10-08T12:56:36;31.80;99.90
71212;DHT22;58957;37.742;-0.742;2023-10-08T12:59:05;31.90;99.90
71212;DHT22;58957;37.742;-0.742;2023-10-08T13:01:34;31.90;99.90
71212;DHT22;58957;37.742;-0.742;2023-10-08T13:04:06;31.60;99.90
71212;DHT22;58957;37.742;-0.742;2023-10-08T13:06:41;31.50;99.90
71212;DHT22;58957;37.742;-0.742;2023-10-08T13:09:11;31.40;99.90
71212;DHT22;58957;37.742;-0.742;2023-10-08T13:11:39;31.30;99.90
71212;DHT22;58957;37.742;-0.742;2023-10-08T13:14:08;30.80;99.90
71212;DHT22;58957;37.742;-0.742;2023-10-08T13:16:38;30.90;99.90
71212;DHT22;58957;37.742;-0.742;2023-10-08T13:19:06;30.80;99.90
71212;DHT22;58957;37.742;-0.742;2023-10-08T13:21:34;30.80;99.90
71212;DHT22;58957;37.742;-0.742;2023-10-08T13:24:03;30.50;99.90
71212;DHT22;58957;37.742;-0.742;2023-10-08T13:26:35;30.50;99.90
71212;DHT22;58957;37.742;-0.742;2023-10-08T13:29:04;30.50;99.90
71212;DHT22;58957;37.742;-0.742;2023-10-08T13:31:35;30.50;99.90
71212;DHT22;58957;37.742;-0.742;2023-10-08T13:34:04;30.40;99.90
71212;DHT22;58957;37.742;-0.742;2023-10-08T13:36:34;30.50;99.90
71212;DHT22;58957;37.742;-0.742;2023-10-08T13:39:04;30.60;99.90
71212;DHT22;58957;37.742;-0.742;2023-10-08T13:41:35;30.50;99.90
71212;DHT22;58957;37.742;-0.742;2023-10-08T13:44:04;30.70;99.90
71212;DHT22;58957;37.742;-0.742;2023-10-08T13:46:32;30.60;99.90
71212;DHT22;58957;37.742;-0.742;2023-10-08T13:49:03;30.50;99.90
71212;DHT22;58957;37.742;-0.742;2023-10-08T13:51:34;30.50;99.90
71212;DHT22;58957;37.742;-0.742;2023-10-08T13:54:04;30.50;99.90
71212;DHT22;58957;37.742;-0.742;2023-10-08T13:56:33;30.40;99.90
71212;DHT22;58957;37.742;-0.742;2023-10-08T13:59:03;30.40;99.90
71212;DHT22;58957;37.742;-0.742;2023-10-08T14:01:38;30.40;99.90
71212;DHT22;58957;37.742;-0.742;2023-10-08T14:04:10;30.10;99.90
71212;DHT22;58957;37.742;-0.742;2023-10-08T14:06:38;30.30;99.90
71212;DHT22;58957;37.742;-0.742;2023-10-08T14:09:08;30.40;99.90
71212;DHT22;58957;37.742;-0.742;2023-10-08T14:11:44;30.40;99.90
71212;DHT22;58957;37.742;-0.742;2023-10-08T14:14:12;30.50;99.90
71212;DHT22;58957;37.742;-0.742;2023-10-08T14:16:42;30.50;99.90
71212;DHT22;58957;37.742;-0.742;2023-10-08T14:19:14;30.60;99.90
71212;DHT22;58957;37.742;-0.742;2023-10-08T14:21:41;30.50;99.90
71212;DHT22;58957;37.742;-0.742;2023-10-08T14:24:16;30.50;99.90
71212;DHT22;58957;37.742;-0.742;2023-10-08T14:26:43;29.90;99.90
71212;DHT22;58957;37.742;-0.742;2023-10-08T14:29:17;29.90;99.90
71212;DHT22;58957;37.742;-0.742;2023-10-08T14:31:45;30.00;99.90
71212;DHT22;58957;37.742;-0.742;2023-10-08T14:34:16;30.20;99.90
71212;DHT22;58957;37.742;-0.742;2023-10-08T14:36:55;30.30;99.90
71212;DHT22;58957;37.742;-0.742;2023-10-08T14:39:39;30.40;99.90
71212;DHT22;58957;37.742;-0.742;2023-10-08T14:42:24;30.40;99.90
71212;DHT22;58957;37.742;-0.742;2023-10-08T14:45:09;30.10;99.90
71212;DHT22;58957;37.742;-0.742;2023-10-08T14:47:39;29.90;99.90
71212;DHT22;58957;37.742;-0.742;2023-10-08T14:50:09;29.90;99.90
71212;DHT22;58957;37.742;-0.742;2023-10-08T14:52:42;29.70;99.90
71212;DHT22;58957;37.742;-0.742;2023-10-08T14:55:09;29.80;99.90
71212;DHT22;58957;37.742;-0.742;2023-10-08T14:57:37;29.90;99.90
71212;DHT22;58957;37.742;-0.742;2023-10-08T15:00:05;29.80;99.90
71212;DHT22;58957;37.742;-0.742;2023-10-08T15:02:33;29.80;99.90
71212;DHT22;58957;37.742;-0.742;2023-10-08T15:05:00;29.70;99.90
71212;DHT22;58957;37.742;-0.742;2023-10-08T15:07:29;29.70;99.90
71212;DHT22;58957;37.742;-0.742;2023-10-08T15:09:57;29.50;99.90
71212;DHT22;58957;37.742;-0.742;2023-10-08T15:12:26;29.60;99.90
71212;DHT22;58957;37.742;-0.742;2023-10-08T15:14:53;29.30;99.90
71212;DHT22;58957;37.742;-0.742;2023-10-08T15:17:22;29.40;99.90
71212;DHT22;58957;37.742;-0.742;2023-10-08T15:19:49;29.50;99.90
71212;DHT22;58957;37.742;-0.742;2023-10-08T15:22:17;29.40;99.90
71212;DHT22;58957;37.742;-0.742;2023-10-08T15:24:46;29.30;99.90
71212;DHT22;58957;37.742;-0.742;2023-10-08T15:27:14;29.40;99.90
71212;DHT22;58957;37.742;-0.742;2023-10-08T15:29:41;29.40;99.90
71212;DHT22;58957;37.742;-0.742;2023-10-08T15:32:08;29.60;99.90
71212;DHT22;58957;37.742;-0.742;2023-10-08T15:34:36;29.70;99.90
71212;DHT22;58957;37.742;-0.742;2023-10-08T15:37:04;29.70;99.90
71212;DHT22;58957;37.742;-0.742;2023-10-08T15:39:32;29.60;99.90
71212;DHT22;58957;37.742;-0.742;2023-10-08T15:42:01;29.50;99.90
71212;DHT22;58957;37.742;-0.742;2023-10-08T15:44:29;29.40;99.90
71212;DHT22;58957;37.742;-0.742;2023-10-08T15:46:56;29.40;99.90
71212;DHT22;58957;37.742;-0.742;2023-10-08T15:49:24;29.40;99.90
71212;DHT22;58957;37.742;-0.742;2023-10-08T15:51:51;29.60;99.90
71212;DHT22;58957;37.742;-0.742;2023-10-08T15:54:18;29.60;99.90
71212;DHT22;58957;37.742;-0.742;2023-10-08T15:56:46;29.80;99.90
71212;DHT22;58957;37.742;-0.742;2023-10-08T15:59:15;29.90;99.90
71212;DHT22;58957;37.742;-0.742;2023-10-08T16:01:42;29.80;99.90
71212;DHT22;58957;37.742;-0.742;2023-10-08T16:04:12;29.80;99.90
71212;DHT22;58957;37.742;-0.742;2023-10-08T16:06:39;29.70;99.90
71212;DHT22;58957;37.742;-0.742;2023-10-08T16:09:06;29.80;99.90
71212;DHT22;58957;37.742;-0.742;2023-10-08T16:11:34;29.90;99.90
71212;DHT22;58957;37.742;-0.742;2023-10-08T16:14:02;29.80;99.90
71212;DHT22;58957;37.742;-0.742;2023-10-08T16:16:31;29.80;99.90
71212;DHT22;58957;37.742;-0.742;2023-10-08T16:18:58;29.50;99.90
71212;DHT22;58957;37.742;-0.742;2023-10-08T16:21:26;29.40;99.90
71212;DHT22;58957;37.742;-0.742;2023-10-08T16:23:53;29.20;99.90
71212;DHT22;58957;37.742;-0.742;2023-10-08T16:26:24;29.20;99.90
71212;DHT22;58957;37.742;-0.742;2023-10-08T16:28:51;28.90;99.90
71212;DHT22;58957;37.742;-0.742;2023-10-08T16:31:19;28.60;99.90
71212;DHT22;58957;37.742;-0.742;2023-10-08T16:33:48;28.40;99.90
71212;DHT22;58957;37.742;-0.742;2023-10-08T16:36:15;28.30;99.90
71212;DHT22;58957;37.742;-0.742;2023-10-08T16:38:44;28.30;99.90
71212;DHT22;58957;37.742;-0.742;2023-10-08T16:41:12;28.20;99.90
71212;DHT22;58957;37.742;-0.742;2023-10-08T16:43:39;28.10;99.90
71212;DHT22;58957;37.742;-0.742;2023-10-08T16:46:06;28.00;99.90
71212;DHT22;58957;37.742;-0.742;2023-10-08T16:48:34;28.10;99.90
71212;DHT22;58957;37.742;-0.742;2023-10-08T16:51:03;28.10;99.90
71212;DHT22;58957;37.742;-0.742;2023-10-08T16:53:34;27.90;99.90
71212;DHT22;58957;37.742;-0.742;2023-10-08T16:56:02;27.80;99.90
71212;DHT22;58957;37.742;-0.742;2023-10-08T16:58:32;27.60;99.90
71212;DHT22;58957;37.742;-0.742;2023-10-08T17:00:59;27.60;99.90
71212;DHT22;58957;37.742;-0.742;2023-10-08T17:03:26;27.40;99.90
71212;DHT22;58957;37.742;-0.742;2023-10-08T17:05:54;27.30;99.90
71212;DHT22;58957;37.742;-0.742;2023-10-08T17:08:22;27.40;99.90
71212;DHT22;58957;37.742;-0.742;2023-10-08T17:10:49;27.40;99.90
71212;DHT22;58957;37.742;-0.742;2023-10-08T17:13:17;27.40;99.90
71212;DHT22;58957;37.742;-0.742;2023-10-08T17:15:44;27.40;99.90
71212;DHT22;58957;37.742;-0.742;2023-10-08T17:18:11;27.40;99.90
71212;DHT22;58957;37.742;-0.742;2023-10-08T17:20:39;27.40;99.90
71212;DHT22;58957;37.742;-0.742;2023-10-08T17:23:07;27.30;99.90
71212;DHT22;58957;37.742;-0.742;2023-10-08T17:25:36;27.30;99.90
71212;DHT22;58957;37.742;-0.742;2023-10-08T17:28:04;27.30;99.90
71212;DHT22;58957;37.742;-0.742;2023-10-08T17:30:32;27.20;99.90
71212;DHT22;58957;37.742;-0.742;2023-10-08T17:33:00;27.20;99.90
71212;DHT22;58957;37.742;-0.742;2023-10-08T17:35:28;27.20;99.90
71212;DHT22;58957;37.742;-0.742;2023-10-08T17:37:55;27.10;99.90
71212;DHT22;58957;37.742;-0.742;2023-10-08T17:40:22;27.00;99.90
71212;DHT22;58957;37.742;-0.742;2023-10-08T17:42:52;27.00;99.90
71212;DHT22;58957;37.742;-0.742;2023-10-08T17:45:21;26.90;99.90
71212;DHT22;58957;37.742;-0.742;2023-10-08T17:47:51;26.90;99.90
71212;DHT22;58957;37.742;-0.742;2023-10-08T17:50:19;26.90;99.90
71212;DHT22;58957;37.742;-0.742;2023-10-08T17:52:47;26.90;99.90
71212;DHT22;58957;37.742;-0.742;2023-10-08T17:55:15;26.80;99.90
71212;DHT22;58957;37.742;-0.742;2023-10-08T17:57:44;26.80;99.90
71212;DHT22;58957;37.742;-0.742;2023-10-08T18:00:14;26.80;99.90
71212;DHT22;58957;37.742;-0.742;2023-10-08T18:02:43;26.70;99.90
71212;DHT22;58957;37.742;-0.742;2023-10-08T18:05:10;26.70;99.90
71212;DHT22;58957;37.742;-0.742;2023-10-08T18:07:42;26.60;99.90
71212;DHT22;58957;37.742;-0.742;2023-10-08T18:10:10;26.60;99.90
71212;DHT22;58957;37.742;-0.742;2023-10-08T18:12:38;26.60;99.90
71212;DHT22;58957;37.742;-0.742;2023-10-08T18:15:07;26.50;99.90
71212;DHT22;58957;37.742;-0.742;2023-10-08T18:17:38;26.50;99.90
71212;DHT22;58957;37.742;-0.742;2023-10-08T18:20:06;26.40;99.90
71212;DHT22;58957;37.742;-0.742;2023-10-08T18:22:38;26.40;99.90
71212;DHT22;58957;37.742;-0.742;2023-10-08T18:25:06;26.40;99.90
71212;DHT22;58957;37.742;-0.742;2023-10-08T18:27:36;26.40;99.90
71212;DHT22;58957;37.742;-0.742;2023-10-08T18:30:05;26.40;99.90
71212;DHT22;58957;37.742;-0.742;2023-10-08T18:32:33;26.40;99.90
71212;DHT22;58957;37.742;-0.742;2023-10-08T18:35:04;26.30;99.90
71212;DHT22;58957;37.742;-0.742;2023-10-08T18:37:31;26.30;99.90
71212;DHT22;58957;37.742;-0.742;2023-10-08T18:39:59;26.30;99.90
71212;DHT22;58957;37.742;-0.742;2023-10-08T18:42:26;26.30;99.90
71212;DHT22;58957;37.742;-0.742;2023-10-08T18:44:54;26.30;99.90
71212;DHT22;58957;37.742;-0.742;2023-10-08T18:47:21;26.30;99.90
71212;DHT22;58957;37.742;-0.742;2023-10-08T18:49:53;26.20;99.90
71212;DHT22;58957;37.742;-0.742;2023-10-08T18:52:22;26.30;99.90
71212;DHT22;58957;37.742;-0.742;2023-10-08T18:54:50;26.40;99.90
71212;DHT22;58957;37.742;-0.742;2023-10-08T18:57:17;26.40;99.90
71212;DHT22;58957;37.742;-0.742;2023-10-08T18:59:46;26.30;99.90
71212;DHT22;58957;37.742;-0.742;2023-10-08T19:02:13;26.30;99.90
71212;DHT22;58957;37.742;-0.742;2023-10-08T19:04:40;26.30;99.90
71212;DHT22;58957;37.742;-0.742;2023-10-08T19:07:08;26.20;99.90
71212;DHT22;58957;37.742;-0.742;2023-10-08T19:09:38;26.20;99.90
71212;DHT22;58957;37.742;-0.742;2023-10-08T19:12:05;26.30;99.90
71212;DHT22;58957;37.742;-0.742;2023-10-08T19:14:33;26.20;99.90
71212;DHT22;58957;37.742;-0.742;2023-10-08T19:17:00;26.20;99.90
71212;DHT22;58957;37.742;-0.742;2023-10-08T19:19:28;26.20;99.90
71212;DHT22;58957;37.742;-0.742;2023-10-08T19:21:56;26.20;99.90
71212;DHT22;58957;37.742;-0.742;2023-10-08T19:24:23;26.10;99.90
71212;DHT22;58957;37.742;-0.742;2023-10-08T19:26:53;26.10;99.90
71212;DHT22;58957;37.742;-0.742;2023-10-08T19:29:21;26.10;99.90
71212;DHT22;58957;37.742;-0.742;2023-10-08T19:31:51;26.10;99.90
71212;DHT22;58957;37.742;-0.742;2023-10-08T19:34:19;26.10;99.90
71212;DHT22;58957;37.742;-0.742;2023-10-08T19:36:47;26.10;99.90
71212;DHT22;58957;37.742;-0.742;2023-10-08T19:39:15;26.10;99.90
71212;DHT22;58957;37.742;-0.742;2023-10-08T19:41:42;26.10;99.90
71212;DHT22;58957;37.742;-0.742;2023-10-08T19:44:11;26.10;99.90
71212;DHT22;58957;37.742;-0.742;2023-10-08T19:46:39;26.20;99.90
71212;DHT22;58957;37.742;-0.742;2023-10-08T19:49:07;26.10;99.90
71212;DHT22;58957;37.742;-0.742;2023-10-08T19:51:35;26.10;99.90
71212;DHT22;58957;37.742;-0.742;2023-10-08T19:54:02;26.10;99.90
71212;DHT22;58957;37.742;-0.742;2023-10-08T19:56:30;26.10;99.90
71212;DHT22;58957;37.742;-0.742;2023-10-08T19:58:58;26.10;99.90
71212;DHT22;58957;37.742;-0.742;2023-10-08T20:01:27;26.10;99.90
71212;DHT22;58957;37.742;-0.742;2023-10-08T20:03:54;26.10;99.90
71212;DHT22;58957;37.742;-0.742;2023-10-08T20:06:21;26.10;99.90
71212;DHT22;58957;37.742;-0.742;2023-10-08T20:08:49;26.10;99.90
71212;DHT22;58957;37.742;-0.742;2023-10-08T20:11:17;26.10;99.90
71212;DHT22;58957;37.742;-0.742;2023-10-08T20:13:47;26.10;99.90
71212;DHT22;58957;37.742;-0.742;2023-10-08T20:16:15;26.00;99.90
71212;DHT22;58957;37.742;-0.742;2023-10-08T20:18:46;26.00;99.90
71212;DHT22;58957;37.742;-0.742;2023-10-08T20:21:14;26.00;99.90
71212;DHT22;58957;37.742;-0.742;2023-10-08T20:23:41;25.90;99.90
71212;DHT22;58957;37.742;-0.742;2023-10-08T20:26:10;25.90;99.90
71212;DHT22;58957;37.742;-0.742;2023-10-08T20:28:39;25.90;99.90
71212;DHT22;58957;37.742;-0.742;2023-10-08T20:31:11;25.90;99.90
71212;DHT22;58957;37.742;-0.742;2023-10-08T20:33:39;25.90;99.90
71212;DHT22;58957;37.742;-0.742;2023-10-08T20:36:08;25.90;99.90
71212;DHT22;58957;37.742;-0.742;2023-10-08T20:38:36;25.90;99.90
71212;DHT22;58957;37.742;-0.742;2023-10-08T20:41:05;25.80;99.90
71212;DHT22;58957;37.742;-0.742;2023-10-08T20:43:32;25.90;99.90
71212;DHT22;58957;37.742;-0.742;2023-10-08T20:46:00;25.80;99.90
71212;DHT22;58957;37.742;-0.742;2023-10-08T20:48:27;25.80;99.90
71212;DHT22;58957;37.742;-0.742;2023-10-08T20:50:57;25.80;99.90
71212;DHT22;58957;37.742;-0.742;2023-10-08T20:53:26;25.80;99.90
71212;DHT22;58957;37.742;-0.742;2023-10-08T20:55:54;25.80;99.90
71212;DHT22;58957;37.742;-0.742;2023-10-08T20:58:21;25.80;99.90
71212;DHT22;58957;37.742;-0.742;2023-10-08T21:00:55;25.80;99.90
71212;DHT22;58957;37.742;-0.742;2023-10-08T21:03:24;25.80;99.90
71212;DHT22;58957;37.742;-0.742;2023-10-08T21:05:52;25.80;99.90
71212;DHT22;58957;37.742;-0.742;2023-10-08T21:08:20;25.70;99.90
71212;DHT22;58957;37.742;-0.742;2023-10-08T21:10:49;25.70;99.90
71212;DHT22;58957;37.742;-0.742;2023-10-08T21:13:18;25.60;99.90
71212;DHT22;58957;37.742;-0.742;2023-10-08T21:15:46;25.60;99.90
71212;DHT22;58957;37.742;-0.742;2023-10-08T21:18:13;25.60;99.90
71212;DHT22;58957;37.742;-0.742;2023-10-08T21:20:41;25.60;99.90
71212;DHT22;58957;37.742;-0.742;2023-10-08T21:23:09;25.60;99.90
71212;DHT22;58957;37.742;-0.742;2023-10-08T21:25:38;25.60;99.90
71212;DHT22;58957;37.742;-0.742;2023-10-08T21:28:08;25.60;99.90
71212;DHT22;58957;37.742;-0.742;2023-10-08T21:30:35;25.60;99.90
71212;DHT22;58957;37.742;-0.742;2023-10-08T21:33:03;25.60;99.90
71212;DHT22;58957;37.742;-0.742;2023-10-08T21:35:34;25.60;99.90
71212;DHT22;58957;37.742;-0.742;2023-10-08T21:38:04;25.60;99.90
71212;DHT22;58957;37.742;-0.742;2023-10-08T21:40:31;25.60;99.90
71212;DHT22;58957;37.742;-0.742;2023-10-08T21:42:58;25.50;99.90
71212;DHT22;58957;37.742;-0.742;2023-10-08T21:45:27;25.50;99.90
71212;DHT22;58957;37.742;-0.742;2023-10-08T21:47:57;25.50;99.90
71212;DHT22;58957;37.742;-0.742;2023-10-08T21:50:25;25.50;99.90
71212;DHT22;58957;37.742;-0.742;2023-10-08T21:52:52;25.50;99.90
71212;DHT22;58957;37.742;-0.742;2023-10-08T21:55:20;25.50;99.90
71212;DHT22;58957;37.742;-0.742;2023-10-08T21:57:48;25.50;99.90
71212;DHT22;58957;37.742;-0.742;2023-10-08T22:00:17;25.50;99.90
71212;DHT22;58957;37.742;-0.742;2023-10-08T22:03:13;25.50;99.90
71212;DHT22;58957;37.742;-0.742;2023-10-08T22:05:41;25.50;99.90
71212;DHT22;58957;37.742;-0.742;2023-10-08T22:08:11;25.50;99.90
71212;DHT22;58957;37.742;-0.742;2023-10-08T22:10:39;25.50;99.90
71212;DHT22;58957;37.742;-0.742;2023-10-08T22:13:09;25.50;99.90
71212;DHT22;58957;37.742;-0.742;2023-10-08T22:15:38;25.50;99.90
71212;DHT22;58957;37.742;-0.742;2023-10-08T22:18:14;25.50;99.90
71212;DHT22;58957;37.742;-0.742;2023-10-08T22:20:51;25.50;99.90
71212;DHT22;58957;37.742;-0.742;2023-10-08T22:23:19;25.40;99.90
71212;DHT22;58957;37.742;-0.742;2023-10-08T22:25:52;25.40;99.90
71212;DHT22;58957;37.742;-0.742;2023-10-08T22:28:21;25.40;99.90
71212;DHT22;58957;37.742;-0.742;2023-10-08T22:30:51;25.40;99.90
71212;DHT22;58957;37.742;-0.742;2023-10-08T22:33:23;25.40;99.90
71212;DHT22;58957;37.742;-0.742;2023-10-08T22:35:55;25.40;99.90
71212;DHT22;58957;37.742;-0.742;2023-10-08T22:38:22;25.40;99.90
71212;DHT22;58957;37.742;-0.742;2023-10-08T22:40:50;25.40;99.90
71212;DHT22;58957;37.742;-0.742;2023-10-08T22:43:36;25.40;99.90
71212;DHT22;58957;37.742;-0.742;2023-10-08T22:46:06;25.40;99.90
71212;DHT22;58957;37.742;-0.742;2023-10-08T22:48:36;25.40;99.90
71212;DHT22;58957;37.742;-0.742;2023-10-08T22:51:09;25.40;99.90
71212;DHT22;58957;37.742;-0.742;2023-10-08T22:53:38;25.30;99.90
71212;DHT22;58957;37.742;-0.742;2023-10-08T22:56:07;25.30;99.90
71212;DHT22;58957;37.742;-0.742;2023-10-08T22:58:38;25.30;99.90
71212;DHT22;58957;37.742;-0.742;2023-10-08T23:01:09;25.30;99.90
71212;DHT22;58957;37.742;-0.742;2023-10-08T23:03:40;25.20;99.90
71212;DHT22;58957;37.742;-0.742;2023-10-08T23:06:09;25.30;99.90
71212;DHT22;58957;37.742;-0.742;2023-10-08T23:08:38;25.20;99.90
71212;DHT22;58957;37.742;-0.742;2023-10-08T23:11:05;25.30;99.90
71212;DHT22;58957;37.742;-0.742;2023-10-08T23:13:33;25.30;99.90
71212;DHT22;58957;37.742;-0.742;2023-10-08T23:16:02;25.20;99.90
71212;DHT22;58957;37.742;-0.742;2023-10-08T23:18:30;25.20;99.90
71212;DHT22;58957;37.742;-0.742;2023-10-08T23:20:59;25.20;99.90
71212;DHT22;58957;37.742;-0.742;2023-10-08T23:23:31;25.10;99.90
71212;DHT22;58957;37.742;-0.742;2023-10-08T23:25:58;25.10;99.90
71212;DHT22;58957;37.742;-0.742;2023-10-08T23:28:26;25.10;99.90
71212;DHT22;58957;37.742;-0.742;2023-10-08T23:30:54;25.10;99.90
71212;DHT22;58957;37.742;-0.742;2023-10-08T23:33:27;25.10;99.90
71212;DHT22;58957;37.742;-0.742;2023-10-08T23:36:05;25.10;99.90
71212;DHT22;58957;37.742;-0.742;2023-10-08T23:38:34;25.10;99.90
71212;DHT22;58957;37.742;-0.742;2023-10-08T23:41:05;25.10;99.90
71212;DHT22;58957;37.742;-0.742;2023-10-08T23:43:47;25.10;99.90
71212;DHT22;58957;37.742;-0.742;2023-10-08T23:46:24;25.10;99.90
71212;DHT22;58957;37.742;-0.742;2023-10-08T23:49:01;25.10;99.90
71212;DHT22;58957;37.742;-0.742;2023-10-08T23:51:44;25.20;99.90
71212;DHT22;58957;37.742;-0.742;2023-10-08T23:54:17;25.20;99.90